createdAt,value
2023-03-10T00:01:20.282Z,3.07
2023-03-10T00:03:48.378Z,2.00
2023-03-10T00:06:16.849Z,1.70
2023-03-10T00:08:44.595Z,2.80
2023-03-10T00:11:12.634Z,3.67
2023-03-10T00:13:40.254Z,2.23
2023-03-10T00:16:08.289Z,1.27
2023-03-10T00:18:35.993Z,3.67
2023-03-10T00:21:03.483Z,3.57
2023-03-10T00:23:31.257Z,1.33
2023-03-10T00:26:00.018Z,3.60
2023-03-10T00:28:28.067Z,1.00
2023-03-10T00:30:59.642Z,2.93
2023-03-10T00:33:27.303Z,4.07
2023-03-10T00:36:20.961Z,3.07
2023-03-10T00:38:49.145Z,4.03
2023-03-10T00:41:18.557Z,0.97
2023-03-10T00:43:46.229Z,3.20
2023-03-10T00:46:14.197Z,2.73
2023-03-10T00:48:41.902Z,3.57
2023-03-10T00:51:09.938Z,1.10
2023-03-10T00:53:38.512Z,1.77
2023-03-10T00:56:06.096Z,4.03
2023-03-10T00:58:34.166Z,1.27
2023-03-10T01:01:02.047Z,4.13
2023-03-10T01:03:29.661Z,3.03
2023-03-10T01:05:57.551Z,2.43
2023-03-10T01:08:25.128Z,1.27
2023-03-10T01:10:52.651Z,1.10
2023-03-10T01:13:20.326Z,1.47
2023-03-10T01:15:48.002Z,3.13
2023-03-10T01:18:18.029Z,2.73
2023-03-10T01:20:45.548Z,2.13
2023-03-10T01:23:16.852Z,1.83
2023-03-10T01:25:44.573Z,1.97
2023-03-10T01:28:12.094Z,3.17
2023-03-10T01:30:40.412Z,3.93
2023-03-10T01:33:08.124Z,1.60
2023-03-10T01:35:35.838Z,1.97
2023-03-10T01:38:03.707Z,1.20
2023-03-10T01:40:31.316Z,1.73
2023-03-10T01:43:17.531Z,2.37
2023-03-10T01:45:47.937Z,1.20
2023-03-10T01:48:16.984Z,3.87
2023-03-10T01:50:46.040Z,4.30
2023-03-10T01:53:14.836Z,2.53
2023-03-10T01:55:44.285Z,1.57
2023-03-10T01:58:11.891Z,1.60
2023-03-10T02:00:41.181Z,1.33
2023-03-10T02:03:20.701Z,3.13
2023-03-10T02:05:50.699Z,3.00
2023-03-10T02:08:19.003Z,4.00
2023-03-10T02:10:46.979Z,2.87
2023-03-10T02:13:14.589Z,2.60
2023-03-10T02:15:42.208Z,2.27
2023-03-10T02:18:11.414Z,1.73
2023-03-10T02:20:44.738Z,3.33
2023-03-10T02:23:15.930Z,1.57
2023-03-10T02:25:54.669Z,4.10
2023-03-10T02:28:22.755Z,1.97
2023-03-10T02:30:50.920Z,1.93
2023-03-10T02:33:20.624Z,3.07
2023-03-10T02:35:48.213Z,2.20
2023-03-10T02:38:15.749Z,2.27
2023-03-10T02:40:49.889Z,2.60
2023-03-10T02:43:19.582Z,1.73
2023-03-10T02:45:47.857Z,2.80
2023-03-10T02:48:19.533Z,4.43
2023-03-10T02:50:48.030Z,4.13
2023-03-10T02:53:15.508Z,1.67
2023-03-10T02:55:43.099Z,2.30
2023-03-10T02:58:10.979Z,4.27
2023-03-10T03:00:39.479Z,3.50
2023-03-10T03:03:07.660Z,2.40
2023-03-10T03:05:35.492Z,3.70
2023-03-10T03:08:03.318Z,4.63
2023-03-10T03:10:31.227Z,2.37
2023-03-10T03:12:58.737Z,4.63
2023-03-10T03:15:26.352Z,3.53
2023-03-10T03:17:53.825Z,4.10
2023-03-10T03:20:21.925Z,2.43
2023-03-10T03:22:49.436Z,4.03
2023-03-10T03:25:18.082Z,4.57
2023-03-10T03:27:45.765Z,4.40
2023-03-10T03:30:15.566Z,4.40
2023-03-10T03:32:43.197Z,5.43
2023-03-10T03:35:12.060Z,5.57
2023-03-10T03:37:39.618Z,7.00
2023-03-10T03:40:07.579Z,6.00
2023-03-10T03:42:35.147Z,3.63
2023-03-10T03:45:02.708Z,4.40
2023-03-10T03:47:30.232Z,5.37
2023-03-10T03:49:57.725Z,2.07
2023-03-10T03:52:25.199Z,4.10
2023-03-10T03:54:52.855Z,3.57
2023-03-10T03:57:20.648Z,4.57
2023-03-10T03:59:48.193Z,4.20
2023-03-10T04:02:15.790Z,4.00
2023-03-10T04:04:43.444Z,5.00
2023-03-10T04:07:11.174Z,8.47
2023-03-10T04:09:40.058Z,3.80
2023-03-10T04:12:08.572Z,4.00
2023-03-10T04:14:36.572Z,6.87
2023-03-10T04:17:04.517Z,3.57
2023-03-10T04:19:32.146Z,5.33
2023-03-10T04:21:59.640Z,3.67
2023-03-10T04:24:27.249Z,3.30
2023-03-10T04:26:54.804Z,3.87
2023-03-10T04:29:22.395Z,4.00
2023-03-10T04:32:04.192Z,6.23
2023-03-10T04:34:32.859Z,2.80
2023-03-10T04:37:00.398Z,3.67
2023-03-10T04:39:27.994Z,4.93
2023-03-10T04:41:55.569Z,8.07
2023-03-10T04:44:30.882Z,5.53
2023-03-10T04:46:59.254Z,5.60
2023-03-10T04:49:26.868Z,4.97
2023-03-10T04:51:55.448Z,3.83
2023-03-10T04:54:22.940Z,4.10
2023-03-10T04:56:50.584Z,7.73
2023-03-10T04:59:18.053Z,7.90
2023-03-10T05:01:45.620Z,3.73
2023-03-10T05:04:13.329Z,7.43
2023-03-10T05:06:40.938Z,4.40
2023-03-10T05:09:08.480Z,5.10
2023-03-10T05:11:36.075Z,5.33
2023-03-10T05:14:03.602Z,4.33
2023-03-10T05:16:31.147Z,6.63
2023-03-10T05:18:58.771Z,9.87
2023-03-10T05:21:26.316Z,5.47
2023-03-10T05:23:53.874Z,9.50
2023-03-10T05:26:21.377Z,11.93
2023-03-10T05:28:49.051Z,12.70
2023-03-10T05:31:17.279Z,12.83
2023-03-10T05:33:44.975Z,4.63
2023-03-10T05:36:13.574Z,5.30
2023-03-10T05:38:41.134Z,7.87
2023-03-10T05:41:09.626Z,8.27
2023-03-10T05:43:38.093Z,8.33
2023-03-10T05:46:06.628Z,10.97
2023-03-10T05:48:34.306Z,9.07
2023-03-10T05:51:03.167Z,8.03
2023-03-10T05:53:32.694Z,7.17
2023-03-10T05:56:00.540Z,8.67
2023-03-10T05:58:28.179Z,9.97
2023-03-10T06:00:55.665Z,5.83
2023-03-10T06:03:23.349Z,8.50
2023-03-10T06:05:50.920Z,9.87
2023-03-10T06:08:18.553Z,8.70
2023-03-10T06:10:46.072Z,10.23
2023-03-10T06:13:13.633Z,11.10
2023-03-10T06:15:41.153Z,7.43
2023-03-10T06:18:08.707Z,10.53
2023-03-10T06:20:39.291Z,8.27
2023-03-10T06:23:06.858Z,9.17
2023-03-10T06:25:34.380Z,10.27
2023-03-10T06:28:01.926Z,7.57
2023-03-10T06:30:29.407Z,9.03
2023-03-10T06:32:57.026Z,7.83
2023-03-10T06:35:24.570Z,5.73
2023-03-10T06:37:52.092Z,8.57
2023-03-10T06:40:19.807Z,12.13
2023-03-10T06:42:47.389Z,9.70
2023-03-10T06:45:16.305Z,7.50
2023-03-10T06:47:44.654Z,9.13
2023-03-10T06:50:12.598Z,7.47
2023-03-10T06:52:40.322Z,12.30
2023-03-10T06:55:08.030Z,6.67
2023-03-10T06:57:35.584Z,5.53
2023-03-10T07:00:03.410Z,10.70
2023-03-10T07:02:30.996Z,5.50
2023-03-10T07:04:58.582Z,7.67
2023-03-10T07:07:26.171Z,7.57
2023-03-10T07:09:53.715Z,10.27
2023-03-10T07:12:21.318Z,12.00
2023-03-10T07:14:48.853Z,7.17
2023-03-10T07:17:16.431Z,7.83
2023-03-10T07:19:43.888Z,6.47
2023-03-10T07:22:11.516Z,9.80
2023-03-10T07:24:39.072Z,5.73
2023-03-10T07:27:06.918Z,5.93
2023-03-10T07:29:34.448Z,8.60
2023-03-10T07:32:02.030Z,8.53
2023-03-10T07:34:29.541Z,7.70
2023-03-10T07:36:57.143Z,6.77
2023-03-10T07:39:24.636Z,9.23
2023-03-10T07:41:52.206Z,4.37
2023-03-10T07:44:19.716Z,8.03
2023-03-10T07:46:47.316Z,5.83
2023-03-10T07:49:15.028Z,9.57
2023-03-10T07:51:42.625Z,7.57
2023-03-10T07:54:10.532Z,4.53
2023-03-10T07:56:38.073Z,5.33
2023-03-10T07:59:05.659Z,9.33
2023-03-10T08:01:33.262Z,5.87
2023-03-10T08:04:00.928Z,5.13
2023-03-10T08:06:29.378Z,8.47
2023-03-10T08:08:56.894Z,5.90
2023-03-10T08:11:24.713Z,7.33
2023-03-10T08:13:52.486Z,3.93
2023-03-10T08:16:21.502Z,10.13
2023-03-10T08:18:50.057Z,8.03
2023-03-10T08:21:17.646Z,8.43
2023-03-10T08:23:45.202Z,6.37
2023-03-10T08:26:16.773Z,7.47
2023-03-10T08:28:44.863Z,5.57
2023-03-10T08:31:13.955Z,9.43
2023-03-10T08:33:42.412Z,10.73
2023-03-10T08:36:14.432Z,9.30
2023-03-10T08:38:42.278Z,6.83
2023-03-10T08:41:12.904Z,4.30
2023-03-10T08:43:40.839Z,6.90
2023-03-10T08:46:09.095Z,13.80
2023-03-10T08:48:37.305Z,12.97
2023-03-10T08:51:05.383Z,11.70
2023-03-10T08:53:33.754Z,8.27
2023-03-10T08:56:01.368Z,8.40
2023-03-10T08:58:28.901Z,9.23
2023-03-10T09:00:56.422Z,8.97
2023-03-10T09:03:24.085Z,9.67
2023-03-10T09:05:51.737Z,8.90
2023-03-10T09:08:19.376Z,7.57
2023-03-10T09:10:46.907Z,9.13
2023-03-10T09:13:14.620Z,9.93
2023-03-10T09:15:42.561Z,5.87
2023-03-10T09:18:14.537Z,11.37
2023-03-10T09:20:42.224Z,7.67
2023-03-10T09:23:10.828Z,10.87
2023-03-10T09:25:38.354Z,7.73
2023-03-10T09:28:05.873Z,8.30
2023-03-10T09:30:33.429Z,13.70
2023-03-10T09:33:01.277Z,9.73
2023-03-10T09:35:28.953Z,6.20
2023-03-10T09:37:56.518Z,8.47
2023-03-10T09:40:24.549Z,8.40
2023-03-10T09:42:57.146Z,12.73
2023-03-10T09:45:24.769Z,6.40
2023-03-10T09:47:57.754Z,8.20
2023-03-10T09:50:43.741Z,8.60
2023-03-10T09:53:17.223Z,6.87
2023-03-10T09:55:48.447Z,9.47
2023-03-10T09:58:28.537Z,4.07
2023-03-10T10:00:56.289Z,8.60
2023-03-10T10:03:29.588Z,7.70
2023-03-10T10:05:58.285Z,4.63
2023-03-10T10:08:29.009Z,8.10
2023-03-10T10:10:58.192Z,10.77
2023-03-10T10:13:28.146Z,13.40
2023-03-10T10:16:24.449Z,4.27
2023-03-10T10:19:03.696Z,8.37
2023-03-10T10:22:00.571Z,9.43
2023-03-10T10:24:28.352Z,7.63
2023-03-10T10:26:55.847Z,6.07
2023-03-10T10:29:27.601Z,10.37
2023-03-10T10:32:04.331Z,6.47
2023-03-10T10:34:32.620Z,8.63
2023-03-10T10:37:00.626Z,16.47
2023-03-10T10:39:29.891Z,4.23
2023-03-10T10:42:12.956Z,5.73
2023-03-10T10:44:41.806Z,6.83
2023-03-10T10:47:19.292Z,4.10
2023-03-10T10:49:46.879Z,4.53
2023-03-10T10:52:22.371Z,6.10
2023-03-10T10:54:54.778Z,3.83
2023-03-10T10:57:24.220Z,5.70
2023-03-10T10:59:52.220Z,4.30
2023-03-10T11:02:22.791Z,5.63
2023-03-10T11:04:50.570Z,7.43
2023-03-10T11:07:20.210Z,8.23
2023-03-10T11:09:48.008Z,3.90
2023-03-10T11:12:18.669Z,3.83
2023-03-10T11:14:59.574Z,4.80
2023-03-10T11:17:39.489Z,1.60
2023-03-10T11:20:07.144Z,4.43
2023-03-10T11:22:40.080Z,6.90
2023-03-10T11:25:22.600Z,2.23
2023-03-10T11:27:56.107Z,3.77
2023-03-10T11:30:29.439Z,6.87
2023-03-10T11:32:59.822Z,3.73
2023-03-10T11:35:41.126Z,2.37
2023-03-10T11:38:27.441Z,5.70
2023-03-10T11:40:56.340Z,2.73
2023-03-10T11:43:38.985Z,4.50
2023-03-10T11:46:11.099Z,5.43
2023-03-10T11:48:38.710Z,3.47
2023-03-10T11:51:06.639Z,2.23
2023-03-10T11:53:53.550Z,3.67
2023-03-10T11:56:22.798Z,4.37
2023-03-10T11:58:58.802Z,2.10
2023-03-10T12:01:30.984Z,3.83
2023-03-10T12:04:06.948Z,3.37
2023-03-10T12:06:45.226Z,2.53
2023-03-10T12:09:30.957Z,5.38
2023-03-10T12:11:58.590Z,4.57
2023-03-10T12:14:26.354Z,2.77
2023-03-10T12:16:54.675Z,5.10
2023-03-10T12:19:22.296Z,1.50
2023-03-10T12:22:08.417Z,2.67
2023-03-10T12:24:46.283Z,1.83
2023-03-10T12:27:13.958Z,5.07
2023-03-10T12:29:42.221Z,5.23
2023-03-10T12:32:28.624Z,2.30
2023-03-10T12:35:22.774Z,4.03
2023-03-10T12:37:50.382Z,1.83
2023-03-10T12:40:41.227Z,3.20
2023-03-10T12:43:27.606Z,0.90
2023-03-10T12:45:59.037Z,2.17
2023-03-10T12:48:26.877Z,1.87
2023-03-10T12:50:58.115Z,2.63
2023-03-10T12:53:31.098Z,2.10
2023-03-10T12:56:07.715Z,2.93
2023-03-10T12:58:36.510Z,1.33
2023-03-10T13:01:06.666Z,3.50
2023-03-10T13:03:41.942Z,1.00
2023-03-10T13:06:12.644Z,3.80
2023-03-10T13:08:40.156Z,2.43
2023-03-10T13:11:13.788Z,2.83
2023-03-10T13:13:41.776Z,2.23
2023-03-10T13:16:09.374Z,1.57
2023-03-10T13:18:37.066Z,0.90
2023-03-10T13:21:05.855Z,1.70
2023-03-10T13:23:34.349Z,2.17
2023-03-10T13:26:03.471Z,1.50
2023-03-10T13:28:32.772Z,3.63
2023-03-10T13:31:09.612Z,1.73
2023-03-10T13:33:50.227Z,4.10
2023-03-10T13:36:24.661Z,1.93
2023-03-10T13:38:52.252Z,1.63
2023-03-10T13:41:19.852Z,0.83
2023-03-10T13:43:47.723Z,1.00
2023-03-10T13:46:16.612Z,1.43
2023-03-10T13:48:44.515Z,1.57
2023-03-10T13:51:15.089Z,2.80
2023-03-10T13:53:42.653Z,2.13
2023-03-10T13:56:30.427Z,1.57
2023-03-10T13:58:58.648Z,1.10
2023-03-10T14:01:31.004Z,2.20
2023-03-10T14:04:00.728Z,1.37
2023-03-10T14:06:29.406Z,1.70
2023-03-10T14:08:57.059Z,0.60
2023-03-10T14:11:44.974Z,1.50
2023-03-10T14:14:12.986Z,1.20
2023-03-10T14:16:47.658Z,1.03
2023-03-10T14:19:35.290Z,0.90
2023-03-10T14:22:02.860Z,0.80
2023-03-10T14:24:30.552Z,0.80
2023-03-10T14:27:01.434Z,5.23
2023-03-10T14:29:28.997Z,1.03
2023-03-10T14:31:56.527Z,2.63
2023-03-10T14:34:24.127Z,1.40
2023-03-10T14:36:51.620Z,1.30
2023-03-10T14:39:19.217Z,1.27
2023-03-10T14:41:47.156Z,4.33
2023-03-10T14:44:14.731Z,1.10
2023-03-10T14:46:42.542Z,2.10
2023-03-10T14:49:13.544Z,1.60
2023-03-10T14:51:41.063Z,2.00
2023-03-10T14:54:16.940Z,2.00
2023-03-10T14:56:44.563Z,2.57
2023-03-10T14:59:16.085Z,3.40
2023-03-10T15:01:43.836Z,6.10
2023-03-10T15:04:17.515Z,3.83
2023-03-10T15:06:45.456Z,2.00
2023-03-10T15:09:13.095Z,5.30
2023-03-10T15:11:41.045Z,2.40
2023-03-10T15:14:18.985Z,2.93
2023-03-10T15:16:46.606Z,1.97
2023-03-10T15:19:24.601Z,2.00
2023-03-10T15:21:52.584Z,3.50
2023-03-10T15:24:20.437Z,2.07
2023-03-10T15:26:48.053Z,2.20
2023-03-10T15:29:16.820Z,2.10
2023-03-10T15:31:44.594Z,3.47
2023-03-10T15:34:12.252Z,1.80
2023-03-10T15:36:39.875Z,2.53
2023-03-10T15:39:07.568Z,1.60
2023-03-10T15:41:38.615Z,1.73
2023-03-10T15:44:06.992Z,1.90
2023-03-10T15:46:34.639Z,1.70
2023-03-10T15:49:02.779Z,1.50
2023-03-10T15:51:30.617Z,1.67
2023-03-10T15:53:58.422Z,2.63
2023-03-10T15:56:26.227Z,2.73
2023-03-10T15:58:53.881Z,0.80
2023-03-10T16:01:21.491Z,0.70
2023-03-10T16:03:49.048Z,0.80
2023-03-10T16:06:16.562Z,1.13
2023-03-10T16:08:44.197Z,0.80
2023-03-10T16:11:20.536Z,0.70
2023-03-10T16:13:48.510Z,0.90
2023-03-10T16:16:20.244Z,1.17
2023-03-10T16:18:48.465Z,0.90
2023-03-10T16:21:17.907Z,1.40
2023-03-10T16:23:46.180Z,1.33
2023-03-10T16:26:13.705Z,1.60
2023-03-10T16:28:42.941Z,1.27
2023-03-10T16:31:11.213Z,1.00
2023-03-10T16:33:38.950Z,2.37
2023-03-10T16:36:07.919Z,2.17
2023-03-10T16:38:36.175Z,1.53
2023-03-10T16:41:04.018Z,1.47
2023-03-10T16:43:34.878Z,0.93
2023-03-10T16:46:13.325Z,1.40
2023-03-10T16:48:42.336Z,3.03
2023-03-10T16:51:30.245Z,1.90
2023-03-10T16:53:59.336Z,2.53
2023-03-10T16:56:27.528Z,4.13
2023-03-10T16:58:55.434Z,2.43
2023-03-10T17:01:23.106Z,2.57
2023-03-10T17:03:54.562Z,2.93
2023-03-10T17:06:24.299Z,3.33
2023-03-10T17:08:52.948Z,4.80
2023-03-10T17:11:21.856Z,2.90
2023-03-10T17:13:49.873Z,2.93
2023-03-10T17:16:17.907Z,2.77
2023-03-10T17:18:45.853Z,3.07
2023-03-10T17:21:14.961Z,3.33
2023-03-10T17:23:42.762Z,2.10
2023-03-10T17:26:11.038Z,2.73
2023-03-10T17:28:39.440Z,3.30
2023-03-10T17:31:10.729Z,4.70
2023-03-10T17:33:38.452Z,4.23
2023-03-10T17:36:07.086Z,6.90
2023-03-10T17:38:34.802Z,2.60
2023-03-10T17:41:06.321Z,5.20
2023-03-10T17:43:34.786Z,6.90
2023-03-10T17:46:03.666Z,3.90
2023-03-10T17:48:31.429Z,3.07
2023-03-10T17:50:59.048Z,2.97
2023-03-10T17:53:27.445Z,5.63
2023-03-10T17:55:54.984Z,3.40
2023-03-10T17:58:23.324Z,3.57
2023-03-10T18:00:50.842Z,6.83
2023-03-10T18:03:18.419Z,3.70
2023-03-10T18:05:46.076Z,4.00
2023-03-10T18:08:14.060Z,3.03
2023-03-10T18:10:41.861Z,4.97
2023-03-10T18:13:11.873Z,3.50
2023-03-10T18:15:39.480Z,4.70
2023-03-10T18:18:07.034Z,3.27
2023-03-10T18:20:34.594Z,4.93
2023-03-10T18:23:02.110Z,4.60
2023-03-10T18:25:29.680Z,6.43
2023-03-10T18:27:57.204Z,4.87
2023-03-10T18:30:24.798Z,5.90
2023-03-10T18:32:52.511Z,5.77
2023-03-10T18:35:20.074Z,4.17
2023-03-10T18:37:47.716Z,8.17
2023-03-10T18:40:15.928Z,7.07
2023-03-10T18:42:43.473Z,7.90
2023-03-10T18:45:11.524Z,8.70
2023-03-10T18:47:39.032Z,9.67
2023-03-10T18:50:06.828Z,6.13
2023-03-10T18:52:34.375Z,10.40
2023-03-10T18:55:01.941Z,7.53
2023-03-10T18:57:29.404Z,5.57
2023-03-10T18:59:57.007Z,9.90
2023-03-10T19:02:24.552Z,9.87
2023-03-10T19:04:52.186Z,8.80
2023-03-10T19:07:19.853Z,8.30
2023-03-10T19:09:47.679Z,4.73
2023-03-10T19:12:15.202Z,5.13
2023-03-10T19:14:42.840Z,5.37
2023-03-10T19:17:10.307Z,6.37
2023-03-10T19:19:37.936Z,4.90
2023-03-10T19:22:05.482Z,5.57
2023-03-10T19:24:33.027Z,4.57
2023-03-10T19:27:00.492Z,5.30
2023-03-10T19:29:28.057Z,4.13
2023-03-10T19:31:55.554Z,4.60
2023-03-10T19:34:23.324Z,4.07
2023-03-10T19:36:50.869Z,3.37
2023-03-10T19:39:18.443Z,3.40
2023-03-10T19:41:45.990Z,3.33
2023-03-10T19:44:13.526Z,3.10
2023-03-10T19:46:41.059Z,2.43
2023-03-10T19:49:08.667Z,3.97
2023-03-10T19:51:36.149Z,3.50
2023-03-10T19:54:03.680Z,3.00
2023-03-10T19:56:31.196Z,3.90
2023-03-10T19:58:58.791Z,2.50
2023-03-10T20:01:27.019Z,3.50
2023-03-10T20:03:56.064Z,4.80
2023-03-10T20:06:24.056Z,2.77
2023-03-10T20:08:52.051Z,3.97
2023-03-10T20:11:19.914Z,2.50
2023-03-10T20:13:47.651Z,3.93
2023-03-10T20:16:16.042Z,4.60
2023-03-10T20:18:43.660Z,4.57
2023-03-10T20:21:11.174Z,4.50
2023-03-10T20:23:38.762Z,6.93
2023-03-10T20:26:07.364Z,7.70
2023-03-10T20:28:35.772Z,7.20
2023-03-10T20:31:03.607Z,9.57
2023-03-10T20:33:31.208Z,7.77
2023-03-10T20:35:58.753Z,9.00
2023-03-10T20:38:26.350Z,8.90
2023-03-10T20:40:53.849Z,9.30
2023-03-10T20:43:21.422Z,10.90
2023-03-10T20:45:51.287Z,9.33
2023-03-10T20:48:18.904Z,9.03
2023-03-10T20:50:46.421Z,9.50
2023-03-10T20:53:14.001Z,7.37
2023-03-10T20:55:42.095Z,9.27
2023-03-10T20:58:09.592Z,10.77
2023-03-10T21:00:37.116Z,8.97
2023-03-10T21:03:04.870Z,9.87
2023-03-10T21:05:32.412Z,7.63
2023-03-10T21:07:59.932Z,6.87
2023-03-10T21:10:27.485Z,8.10
2023-03-10T21:12:55.127Z,7.50
2023-03-10T21:15:23.020Z,9.33
2023-03-10T21:17:50.726Z,9.37
2023-03-10T21:20:20.313Z,6.77
2023-03-10T21:22:48.128Z,8.97
2023-03-10T21:25:17.518Z,14.33
2023-03-10T21:27:47.397Z,8.87
2023-03-10T21:30:15.047Z,7.83
2023-03-10T21:32:42.641Z,7.70
2023-03-10T21:35:10.596Z,8.73
2023-03-10T21:37:40.130Z,10.37
2023-03-10T21:40:09.617Z,5.80
2023-03-10T21:42:37.634Z,8.33
2023-03-10T21:45:06.091Z,8.83
2023-03-10T21:47:33.602Z,6.50
2023-03-10T21:50:01.201Z,7.17
2023-03-10T21:52:28.759Z,5.77
2023-03-10T21:54:56.303Z,7.43
2023-03-10T21:57:23.815Z,4.97
2023-03-10T21:59:51.412Z,9.03
2023-03-10T22:02:27.005Z,10.50
2023-03-10T22:04:55.105Z,8.87
2023-03-10T22:07:22.785Z,5.97
2023-03-10T22:09:50.401Z,4.10
2023-03-10T22:12:21.471Z,5.23
2023-03-10T22:14:49.002Z,4.47
2023-03-10T22:17:16.656Z,13.23
2023-03-10T22:19:44.362Z,6.10
2023-03-10T22:22:11.888Z,11.23
2023-03-10T22:24:39.527Z,5.87
2023-03-10T22:27:07.034Z,9.17
2023-03-10T22:29:34.599Z,3.97
2023-03-10T22:32:02.110Z,5.30
2023-03-10T22:34:29.722Z,6.67
2023-03-10T22:36:57.290Z,8.50
2023-03-10T22:39:24.846Z,9.40
2023-03-10T22:41:52.789Z,6.00
2023-03-10T22:44:20.299Z,7.77
2023-03-10T22:46:48.081Z,7.97
2023-03-10T22:49:15.715Z,6.77
2023-03-10T22:51:43.255Z,9.50
2023-03-10T22:54:10.831Z,8.43
2023-03-10T22:56:38.310Z,7.80
2023-03-10T22:59:05.857Z,7.27
2023-03-10T23:01:33.499Z,7.43
2023-03-10T23:04:01.152Z,4.40
2023-03-10T23:06:28.687Z,17.13
2023-03-10T23:08:56.798Z,5.30
2023-03-10T23:11:24.306Z,4.83
2023-03-10T23:13:51.879Z,7.20
2023-03-10T23:16:19.523Z,11.93
2023-03-10T23:18:47.308Z,12.87
2023-03-10T23:21:15.202Z,5.77
2023-03-10T23:23:42.818Z,6.23
2023-03-10T23:26:11.352Z,10.03
2023-03-10T23:28:39.363Z,7.30
2023-03-10T23:31:07.616Z,6.27
2023-03-10T23:33:35.211Z,10.13
2023-03-10T23:36:02.774Z,5.80
2023-03-10T23:38:30.395Z,9.03
2023-03-10T23:40:57.862Z,8.40
2023-03-10T23:43:25.461Z,7.73
2023-03-10T23:45:53.317Z,6.27
2023-03-10T23:48:20.940Z,11.53
2023-03-10T23:50:48.976Z,9.90
2023-03-10T23:53:17.482Z,5.90
2023-03-10T23:55:46.042Z,9.13
2023-03-10T23:58:14.650Z,9.63
